sensor_id;sensor_type;location;lat;lon;timestamp;temperature;humidity
1650;DHT22;822;53.670;8.676;2023-04-12T00:00:10;3.70;97.10
1650;DHT22;822;53.670;8.676;2023-04-12T00:02:38;3.70;97.10
1650;DHT22;822;53.670;8.676;2023-04-12T00:05:07;3.70;97.10
1650;DHT22;822;53.670;8.676;2023-04-12T00:07:36;3.70;97.10
1650;DHT22;822;53.670;8.676;2023-04-12T00:10:05;3.80;97.20
1650;DHT22;822;53.670;8.676;2023-04-12T00:12:32;3.80;97.20
1650;DHT22;822;53.670;8.676;2023-04-12T00:15:01;3.80;97.20
1650;DHT22;822;53.670;8.676;2023-04-12T00:17:28;3.80;97.20
1650;DHT22;822;53.670;8.676;2023-04-12T00:19:57;3.80;97.20
1650;DHT22;822;53.670;8.676;2023-04-12T00:22:24;3.80;97.20
1650;DHT22;822;53.670;8.676;2023-04-12T00:24:53;3.80;97.20
1650;DHT22;822;53.670;8.676;2023-04-12T00:27:20;3.80;97.30
1650;DHT22;822;53.670;8.676;2023-04-12T00:29:47;3.80;97.30
1650;DHT22;822;53.670;8.676;2023-04-12T00:32:15;3.80;97.30
1650;DHT22;822;53.670;8.676;2023-04-12T00:34:43;3.80;97.30
1650;DHT22;822;53.670;8.676;2023-04-12T00:37:10;3.80;97.30
1650;DHT22;822;53.670;8.676;2023-04-12T00:39:37;3.80;97.40
1650;DHT22;822;53.670;8.676;2023-04-12T00:42:04;3.90;97.40
1650;DHT22;822;53.670;8.676;2023-04-12T00:44:35;3.90;97.40
1650;DHT22;822;53.670;8.676;2023-04-12T00:47:03;4.00;97.50
1650;DHT22;822;53.670;8.676;2023-04-12T00:49:32;4.00;97.50
1650;DHT22;822;53.670;8.676;2023-04-12T00:52:02;4.00;97.50
1650;DHT22;822;53.670;8.676;2023-04-12T00:54:29;4.00;97.50
1650;DHT22;822;53.670;8.676;2023-04-12T00:56:57;4.00;97.50
1650;DHT22;822;53.670;8.676;2023-04-12T00:59:24;4.10;97.50
1650;DHT22;822;53.670;8.676;2023-04-12T01:01:51;4.10;97.50
1650;DHT22;822;53.670;8.676;2023-04-12T01:04:19;4.10;97.50
1650;DHT22;822;53.670;8.676;2023-04-12T01:07:07;4.10;97.50
1650;DHT22;822;53.670;8.676;2023-04-12T01:09:46;4.10;97.50
1650;DHT22;822;53.670;8.676;2023-04-12T01:12:24;4.20;97.50
1650;DHT22;822;53.670;8.676;2023-04-12T01:14:57;4.20;97.40
1650;DHT22;822;53.670;8.676;2023-04-12T01:17:29;4.20;97.40
1650;DHT22;822;53.670;8.676;2023-04-12T01:20:05;4.10;97.30
1650;DHT22;822;53.670;8.676;2023-04-12T01:22:54;4.10;97.30
1650;DHT22;822;53.670;8.676;2023-04-12T01:25:38;4.10;97.30
1650;DHT22;822;53.670;8.676;2023-04-12T01:28:09;4.10;97.30
1650;DHT22;822;53.670;8.676;2023-04-12T01:30:41;4.10;97.30
1650;DHT22;822;53.670;8.676;2023-04-12T01:33:11;4.20;97.30
1650;DHT22;822;53.670;8.676;2023-04-12T01:35:38;4.20;97.30
1650;DHT22;822;53.670;8.676;2023-04-12T01:38:06;4.20;97.30
1650;DHT22;822;53.670;8.676;2023-04-12T01:40:37;4.20;97.20
1650;DHT22;822;53.670;8.676;2023-04-12T01:43:08;4.20;97.20
1650;DHT22;822;53.670;8.676;2023-04-12T01:45:35;4.20;97.20
1650;DHT22;822;53.670;8.676;2023-04-12T01:48:03;4.20;97.10
1650;DHT22;822;53.670;8.676;2023-04-12T01:50:38;4.20;97.10
1650;DHT22;822;53.670;8.676;2023-04-12T01:53:13;4.20;97.10
1650;DHT22;822;53.670;8.676;2023-04-12T01:55:43;4.20;97.00
1650;DHT22;822;53.670;8.676;2023-04-12T01:58:15;4.20;96.90
1650;DHT22;822;53.670;8.676;2023-04-12T02:00:44;4.20;96.90
1650;DHT22;822;53.670;8.676;2023-04-12T02:03:11;4.20;96.80
1650;DHT22;822;53.670;8.676;2023-04-12T02:05:39;4.20;96.70
1650;DHT22;822;53.670;8.676;2023-04-12T02:08:06;4.30;96.70
1650;DHT22;822;53.670;8.676;2023-04-12T02:10:34;4.30;96.60
1650;DHT22;822;53.670;8.676;2023-04-12T02:13:04;4.30;96.60
1650;DHT22;822;53.670;8.676;2023-04-12T02:15:33;4.30;96.60
1650;DHT22;822;53.670;8.676;2023-04-12T02:18:01;4.30;96.50
1650;DHT22;822;53.670;8.676;2023-04-12T02:20:29;4.40;96.50
1650;DHT22;822;53.670;8.676;2023-04-12T02:22:56;4.40;96.70
1650;DHT22;822;53.670;8.676;2023-04-12T02:25:28;4.40;96.30
1650;DHT22;822;53.670;8.676;2023-04-12T02:27:55;4.40;96.30
1650;DHT22;822;53.670;8.676;2023-04-12T02:30:22;4.50;96.20
1650;DHT22;822;53.670;8.676;2023-04-12T02:32:51;4.50;96.10
1650;DHT22;822;53.670;8.676;2023-04-12T02:35:18;4.60;96.10
1650;DHT22;822;53.670;8.676;2023-04-12T02:37:46;4.60;95.90
1650;DHT22;822;53.670;8.676;2023-04-12T02:40:13;4.60;95.90
1650;DHT22;822;53.670;8.676;2023-04-12T02:42:41;4.70;95.80
1650;DHT22;822;53.670;8.676;2023-04-12T02:45:09;4.70;95.70
1650;DHT22;822;53.670;8.676;2023-04-12T02:47:36;4.70;95.50
1650;DHT22;822;53.670;8.676;2023-04-12T02:50:07;4.80;95.40
1650;DHT22;822;53.670;8.676;2023-04-12T02:52:35;4.80;95.40
1650;DHT22;822;53.670;8.676;2023-04-12T02:55:02;4.80;95.20
1650;DHT22;822;53.670;8.676;2023-04-12T02:57:29;4.80;95.10
1650;DHT22;822;53.670;8.676;2023-04-12T02:59:56;4.90;95.00
1650;DHT22;822;53.670;8.676;2023-04-12T03:02:24;4.90;94.90
1650;DHT22;822;53.670;8.676;2023-04-12T03:04:51;4.90;94.80
1650;DHT22;822;53.670;8.676;2023-04-12T03:07:21;4.90;94.70
1650;DHT22;822;53.670;8.676;2023-04-12T03:09:49;4.90;94.70
1650;DHT22;822;53.670;8.676;2023-04-12T03:12:16;4.90;94.60
1650;DHT22;822;53.670;8.676;2023-04-12T03:14:43;4.90;94.60
1650;DHT22;822;53.670;8.676;2023-04-12T03:17:10;5.00;94.50
1650;DHT22;822;53.670;8.676;2023-04-12T03:19:37;5.00;94.40
1650;DHT22;822;53.670;8.676;2023-04-12T03:22:05;5.00;94.30
1650;DHT22;822;53.670;8.676;2023-04-12T03:24:33;5.00;94.30
1650;DHT22;822;53.670;8.676;2023-04-12T03:27:01;5.00;94.20
1650;DHT22;822;53.670;8.676;2023-04-12T03:29:29;5.00;94.10
1650;DHT22;822;53.670;8.676;2023-04-12T03:31:56;5.00;94.10
1650;DHT22;822;53.670;8.676;2023-04-12T03:34:24;5.00;94.30
1650;DHT22;822;53.670;8.676;2023-04-12T03:36:53;5.00;94.10
1650;DHT22;822;53.670;8.676;2023-04-12T03:39:20;5.00;94.00
1650;DHT22;822;53.670;8.676;2023-04-12T03:41:49;5.10;94.00
1650;DHT22;822;53.670;8.676;2023-04-12T03:44:18;5.10;93.90
1650;DHT22;822;53.670;8.676;2023-04-12T03:46:46;5.10;93.90
1650;DHT22;822;53.670;8.676;2023-04-12T03:49:13;5.10;93.90
1650;DHT22;822;53.670;8.676;2023-04-12T03:51:41;5.10;93.90
1650;DHT22;822;53.670;8.676;2023-04-12T03:54:12;5.10;93.80
1650;DHT22;822;53.670;8.676;2023-04-12T03:56:39;5.10;93.80
1650;DHT22;822;53.670;8.676;2023-04-12T03:59:07;5.20;93.80
1650;DHT22;822;53.670;8.676;2023-04-12T04:01:35;5.20;93.70
1650;DHT22;822;53.670;8.676;2023-04-12T04:04:03;5.20;93.70
1650;DHT22;822;53.670;8.676;2023-04-12T04:06:31;5.20;93.60
1650;DHT22;822;53.670;8.676;2023-04-12T04:08:59;5.20;93.60
1650;DHT22;822;53.670;8.676;2023-04-12T04:11:27;5.20;93.80
1650;DHT22;822;53.670;8.676;2023-04-12T04:13:54;5.30;93.50
1650;DHT22;822;53.670;8.676;2023-04-12T04:16:22;5.30;93.40
1650;DHT22;822;53.670;8.676;2023-04-12T04:18:49;5.30;93.40
1650;DHT22;822;53.670;8.676;2023-04-12T04:21:17;5.30;93.30
1650;DHT22;822;53.670;8.676;2023-04-12T04:23:44;5.30;93.20
1650;DHT22;822;53.670;8.676;2023-04-12T04:26:12;5.30;93.20
1650;DHT22;822;53.670;8.676;2023-04-12T04:28:41;5.30;93.10
1650;DHT22;822;53.670;8.676;2023-04-12T04:31:10;5.30;93.10
1650;DHT22;822;53.670;8.676;2023-04-12T04:33:39;5.40;93.10
1650;DHT22;822;53.670;8.676;2023-04-12T04:36:08;5.30;92.90
1650;DHT22;822;53.670;8.676;2023-04-12T04:38:36;5.30;92.90
1650;DHT22;822;53.670;8.676;2023-04-12T04:41:05;5.30;92.90
1650;DHT22;822;53.670;8.676;2023-04-12T04:43:33;5.30;92.80
1650;DHT22;822;53.670;8.676;2023-04-12T04:46:04;5.30;92.80
1650;DHT22;822;53.670;8.676;2023-04-12T04:48:32;5.30;92.80
1650;DHT22;822;53.670;8.676;2023-04-12T04:51:01;5.30;92.70
1650;DHT22;822;53.670;8.676;2023-04-12T04:53:28;5.30;92.80
1650;DHT22;822;53.670;8.676;2023-04-12T04:55:58;5.30;92.70
1650;DHT22;822;53.670;8.676;2023-04-12T04:58:26;5.30;92.60
1650;DHT22;822;53.670;8.676;2023-04-12T05:00:55;5.30;92.50
1650;DHT22;822;53.670;8.676;2023-04-12T05:03:24;5.40;92.50
1650;DHT22;822;53.670;8.676;2023-04-12T05:05:52;5.40;92.50
1650;DHT22;822;53.670;8.676;2023-04-12T05:08:21;5.40;92.40
1650;DHT22;822;53.670;8.676;2023-04-12T05:10:51;5.40;92.40
1650;DHT22;822;53.670;8.676;2023-04-12T05:13:18;5.50;92.50
1650;DHT22;822;53.670;8.676;2023-04-12T05:15:46;5.50;92.50
1650;DHT22;822;53.670;8.676;2023-04-12T05:18:14;5.60;92.50
1650;DHT22;822;53.670;8.676;2023-04-12T05:20:42;5.70;92.70
1650;DHT22;822;53.670;8.676;2023-04-12T05:23:09;5.80;92.30
1650;DHT22;822;53.670;8.676;2023-04-12T05:25:43;5.90;92.20
1650;DHT22;822;53.670;8.676;2023-04-12T05:28:12;5.90;92.30
1650;DHT22;822;53.670;8.676;2023-04-12T05:30:40;6.00;91.90
1650;DHT22;822;53.670;8.676;2023-04-12T05:33:07;6.00;91.80
1650;DHT22;822;53.670;8.676;2023-04-12T05:35:34;6.00;91.70
1650;DHT22;822;53.670;8.676;2023-04-12T05:38:01;6.10;91.70
1650;DHT22;822;53.670;8.676;2023-04-12T05:40:28;6.00;91.60
1650;DHT22;822;53.670;8.676;2023-04-12T05:42:58;6.10;91.60
1650;DHT22;822;53.670;8.676;2023-04-12T05:45:26;6.10;91.50
1650;DHT22;822;53.670;8.676;2023-04-12T05:47:53;6.20;91.40
1650;DHT22;822;53.670;8.676;2023-04-12T05:50:20;6.20;91.40
1650;DHT22;822;53.670;8.676;2023-04-12T05:52:49;6.30;91.30
1650;DHT22;822;53.670;8.676;2023-04-12T05:55:16;6.30;91.20
1650;DHT22;822;53.670;8.676;2023-04-12T05:57:44;6.40;91.00
1650;DHT22;822;53.670;8.676;2023-04-12T06:00:14;6.40;90.80
1650;DHT22;822;53.670;8.676;2023-04-12T06:02:43;6.50;90.70
1650;DHT22;822;53.670;8.676;2023-04-12T06:05:13;6.50;90.40
1650;DHT22;822;53.670;8.676;2023-04-12T06:07:42;6.60;90.30
1650;DHT22;822;53.670;8.676;2023-04-12T06:10:13;6.60;90.10
1650;DHT22;822;53.670;8.676;2023-04-12T06:12:40;6.60;90.10
1650;DHT22;822;53.670;8.676;2023-04-12T06:15:07;6.60;90.20
1650;DHT22;822;53.670;8.676;2023-04-12T06:17:36;6.70;90.40
1650;DHT22;822;53.670;8.676;2023-04-12T06:20:04;6.80;90.20
1650;DHT22;822;53.670;8.676;2023-04-12T06:22:33;6.80;90.10
1650;DHT22;822;53.670;8.676;2023-04-12T06:25:00;6.90;90.00
1650;DHT22;822;53.670;8.676;2023-04-12T06:27:28;6.90;89.90
1650;DHT22;822;53.670;8.676;2023-04-12T06:29:55;7.00;89.60
1650;DHT22;822;53.670;8.676;2023-04-12T06:32:22;7.00;89.30
1650;DHT22;822;53.670;8.676;2023-04-12T06:34:53;7.00;89.00
1650;DHT22;822;53.670;8.676;2023-04-12T06:37:21;7.10;89.00
1650;DHT22;822;53.670;8.676;2023-04-12T06:39:48;7.10;88.80
1650;DHT22;822;53.670;8.676;2023-04-12T06:42:16;7.20;88.70
1650;DHT22;822;53.670;8.676;2023-04-12T06:44:43;7.20;88.50
1650;DHT22;822;53.670;8.676;2023-04-12T06:47:11;7.30;88.30
1650;DHT22;822;53.670;8.676;2023-04-12T06:49:38;7.30;88.30
1650;DHT22;822;53.670;8.676;2023-04-12T06:52:06;7.30;88.20
1650;DHT22;822;53.670;8.676;2023-04-12T06:54:37;7.30;88.10
1650;DHT22;822;53.670;8.676;2023-04-12T06:57:07;7.40;87.90
1650;DHT22;822;53.670;8.676;2023-04-12T06:59:35;7.40;87.30
1650;DHT22;822;53.670;8.676;2023-04-12T07:02:03;7.40;87.20
1650;DHT22;822;53.670;8.676;2023-04-12T07:04:31;7.40;87.20
1650;DHT22;822;53.670;8.676;2023-04-12T07:06:59;7.40;87.10
1650;DHT22;822;53.670;8.676;2023-04-12T07:09:29;7.50;87.20
1650;DHT22;822;53.670;8.676;2023-04-12T07:11:57;7.50;87.10
1650;DHT22;822;53.670;8.676;2023-04-12T07:14:24;7.50;87.10
1650;DHT22;822;53.670;8.676;2023-04-12T07:16:51;7.60;87.10
1650;DHT22;822;53.670;8.676;2023-04-12T07:19:18;7.60;86.90
1650;DHT22;822;53.670;8.676;2023-04-12T07:21:45;7.70;86.80
1650;DHT22;822;53.670;8.676;2023-04-12T07:24:12;7.70;86.30
1650;DHT22;822;53.670;8.676;2023-04-12T07:26:41;7.80;86.00
1650;DHT22;822;53.670;8.676;2023-04-12T07:29:08;7.80;85.90
1650;DHT22;822;53.670;8.676;2023-04-12T07:31:35;7.90;85.80
1650;DHT22;822;53.670;8.676;2023-04-12T07:34:03;7.90;85.80
1650;DHT22;822;53.670;8.676;2023-04-12T07:36:30;7.90;85.30
1650;DHT22;822;53.670;8.676;2023-04-12T07:38:57;8.00;85.20
1650;DHT22;822;53.670;8.676;2023-04-12T07:41:24;8.10;85.50
1650;DHT22;822;53.670;8.676;2023-04-12T07:43:53;8.10;85.50
1650;DHT22;822;53.670;8.676;2023-04-12T07:46:20;8.20;85.50
1650;DHT22;822;53.670;8.676;2023-04-12T07:48:47;8.20;85.20
1650;DHT22;822;53.670;8.676;2023-04-12T07:51:14;8.30;84.40
1650;DHT22;822;53.670;8.676;2023-04-12T07:53:41;8.30;83.60
1650;DHT22;822;53.670;8.676;2023-04-12T07:56:12;8.40;83.50
1650;DHT22;822;53.670;8.676;2023-04-12T07:58:40;8.40;82.70
1650;DHT22;822;53.670;8.676;2023-04-12T08:01:10;8.40;82.30
1650;DHT22;822;53.670;8.676;2023-04-12T08:03:38;8.40;82.60
1650;DHT22;822;53.670;8.676;2023-04-12T08:06:08;8.40;83.40
1650;DHT22;822;53.670;8.676;2023-04-12T08:08:35;8.40;83.70
1650;DHT22;822;53.670;8.676;2023-04-12T08:11:03;8.40;83.50
1650;DHT22;822;53.670;8.676;2023-04-12T08:13:31;8.40;83.70
1650;DHT22;822;53.670;8.676;2023-04-12T08:15:58;8.40;84.10
1650;DHT22;822;53.670;8.676;2023-04-12T08:18:27;8.40;84.80
1650;DHT22;822;53.670;8.676;2023-04-12T08:20:54;8.50;85.00
1650;DHT22;822;53.670;8.676;2023-04-12T08:23:22;8.40;85.40
1650;DHT22;822;53.670;8.676;2023-04-12T08:25:49;8.40;85.40
1650;DHT22;822;53.670;8.676;2023-04-12T08:28:16;8.40;85.90
1650;DHT22;822;53.670;8.676;2023-04-12T08:30:43;8.50;86.20
1650;DHT22;822;53.670;8.676;2023-04-12T08:33:10;8.50;87.10
1650;DHT22;822;53.670;8.676;2023-04-12T08:35:41;8.50;86.90
1650;DHT22;822;53.670;8.676;2023-04-12T08:38:08;8.60;87.40
1650;DHT22;822;53.670;8.676;2023-04-12T08:40:35;8.70;87.80
1650;DHT22;822;53.670;8.676;2023-04-12T08:43:06;8.70;87.50
1650;DHT22;822;53.670;8.676;2023-04-12T08:45:34;8.70;87.70
1650;DHT22;822;53.670;8.676;2023-04-12T08:48:03;8.80;88.30
1650;DHT22;822;53.670;8.676;2023-04-12T08:50:30;8.80;88.10
1650;DHT22;822;53.670;8.676;2023-04-12T08:52:59;8.80;88.40
1650;DHT22;822;53.670;8.676;2023-04-12T08:55:26;8.80;88.80
1650;DHT22;822;53.670;8.676;2023-04-12T08:57:54;8.80;88.90
1650;DHT22;822;53.670;8.676;2023-04-12T09:00:21;8.80;89.40
1650;DHT22;822;53.670;8.676;2023-04-12T09:02:49;8.80;89.80
1650;DHT22;822;53.670;8.676;2023-04-12T09:05:16;8.80;90.20
1650;DHT22;822;53.670;8.676;2023-04-12T09:07:43;8.80;90.60
1650;DHT22;822;53.670;8.676;2023-04-12T09:10:29;8.80;90.80
1650;DHT22;822;53.670;8.676;2023-04-12T09:12:57;8.80;90.90
1650;DHT22;822;53.670;8.676;2023-04-12T09:15:24;8.70;91.00
1650;DHT22;822;53.670;8.676;2023-04-12T09:18:03;8.70;91.20
1650;DHT22;822;53.670;8.676;2023-04-12T09:20:30;8.70;91.50
1650;DHT22;822;53.670;8.676;2023-04-12T09:22:58;8.60;91.60
1650;DHT22;822;53.670;8.676;2023-04-12T09:25:40;8.60;92.00
1650;DHT22;822;53.670;8.676;2023-04-12T09:28:20;8.60;92.20
1650;DHT22;822;53.670;8.676;2023-04-12T09:30:51;8.60;92.40
1650;DHT22;822;53.670;8.676;2023-04-12T09:33:20;8.50;92.70
1650;DHT22;822;53.670;8.676;2023-04-12T09:35:48;8.50;92.90
1650;DHT22;822;53.670;8.676;2023-04-12T09:38:18;8.50;93.00
1650;DHT22;822;53.670;8.676;2023-04-12T09:40:46;8.40;93.20
1650;DHT22;822;53.670;8.676;2023-04-12T09:43:14;8.40;93.50
1650;DHT22;822;53.670;8.676;2023-04-12T09:45:41;8.40;93.60
1650;DHT22;822;53.670;8.676;2023-04-12T09:48:18;8.40;93.90
1650;DHT22;822;53.670;8.676;2023-04-12T09:50:45;8.40;94.10
1650;DHT22;822;53.670;8.676;2023-04-12T09:53:15;8.30;94.30
1650;DHT22;822;53.670;8.676;2023-04-12T09:55:46;8.30;94.50
1650;DHT22;822;53.670;8.676;2023-04-12T09:58:18;8.30;94.70
1650;DHT22;822;53.670;8.676;2023-04-12T10:00:46;8.30;94.90
1650;DHT22;822;53.670;8.676;2023-04-12T10:03:13;8.30;95.10
1650;DHT22;822;53.670;8.676;2023-04-12T10:05:40;8.30;95.20
1650;DHT22;822;53.670;8.676;2023-04-12T10:08:10;8.30;95.30
1650;DHT22;822;53.670;8.676;2023-04-12T10:10:38;8.30;95.40
1650;DHT22;822;53.670;8.676;2023-04-12T10:13:07;8.30;95.50
1650;DHT22;822;53.670;8.676;2023-04-12T10:15:36;8.30;95.60
1650;DHT22;822;53.670;8.676;2023-04-12T10:18:05;8.30;95.60
1650;DHT22;822;53.670;8.676;2023-04-12T10:20:32;8.30;95.70
1650;DHT22;822;53.670;8.676;2023-04-12T10:23:00;8.30;95.80
1650;DHT22;822;53.670;8.676;2023-04-12T10:25:28;8.30;96.00
1650;DHT22;822;53.670;8.676;2023-04-12T10:27:56;8.30;96.10
1650;DHT22;822;53.670;8.676;2023-04-12T10:30:26;8.30;96.20
1650;DHT22;822;53.670;8.676;2023-04-12T10:33:13;8.30;96.30
1650;DHT22;822;53.670;8.676;2023-04-12T10:35:52;8.30;96.30
1650;DHT22;822;53.670;8.676;2023-04-12T10:38:20;8.40;96.50
1650;DHT22;822;53.670;8.676;2023-04-12T10:41:15;8.40;96.50
1650;DHT22;822;53.670;8.676;2023-04-12T10:43:44;8.40;96.70
1650;DHT22;822;53.670;8.676;2023-04-12T10:46:47;8.50;96.70
1650;DHT22;822;53.670;8.676;2023-04-12T10:49:16;8.50;96.80
1650;DHT22;822;53.670;8.676;2023-04-12T10:52:11;8.50;96.80
1650;DHT22;822;53.670;8.676;2023-04-12T10:54:39;8.50;96.80
1650;DHT22;822;53.670;8.676;2023-04-12T10:57:07;8.50;97.10
1650;DHT22;822;53.670;8.676;2023-04-12T10:59:54;8.60;97.20
1650;DHT22;822;53.670;8.676;2023-04-12T11:02:28;8.70;97.30
1650;DHT22;822;53.670;8.676;2023-04-12T11:05:06;8.70;97.30
1650;DHT22;822;53.670;8.676;2023-04-12T11:07:38;8.80;97.20
1650;DHT22;822;53.670;8.676;2023-04-12T11:10:12;8.70;97.10
1650;DHT22;822;53.670;8.676;2023-04-12T11:12:40;8.80;97.30
1650;DHT22;822;53.670;8.676;2023-04-12T11:15:11;8.90;97.30
1650;DHT22;822;53.670;8.676;2023-04-12T11:17:40;8.80;97.20
1650;DHT22;822;53.670;8.676;2023-04-12T11:20:10;8.90;97.30
1650;DHT22;822;53.670;8.676;2023-04-12T11:22:41;9.00;97.30
1650;DHT22;822;53.670;8.676;2023-04-12T11:25:08;9.00;97.40
1650;DHT22;822;53.670;8.676;2023-04-12T11:27:36;9.10;97.40
1650;DHT22;822;53.670;8.676;2023-04-12T11:30:04;9.10;97.40
1650;DHT22;822;53.670;8.676;2023-04-12T11:32:31;9.10;97.40
1650;DHT22;822;53.670;8.676;2023-04-12T11:35:01;9.10;97.30
1650;DHT22;822;53.670;8.676;2023-04-12T11:37:29;9.10;97.20
1650;DHT22;822;53.670;8.676;2023-04-12T11:39:57;9.20;97.30
1650;DHT22;822;53.670;8.676;2023-04-12T11:42:27;9.10;97.20
1650;DHT22;822;53.670;8.676;2023-04-12T11:44:56;9.10;97.10
1650;DHT22;822;53.670;8.676;2023-04-12T11:47:25;9.20;97.20
1650;DHT22;822;53.670;8.676;2023-04-12T11:49:53;9.20;97.10
1650;DHT22;822;53.670;8.676;2023-04-12T11:52:28;9.20;97.20
1650;DHT22;822;53.670;8.676;2023-04-12T11:54:57;9.20;97.20
1650;DHT22;822;53.670;8.676;2023-04-12T11:57:25;9.20;97.10
1650;DHT22;822;53.670;8.676;2023-04-12T11:59:56;9.20;97.10
1650;DHT22;822;53.670;8.676;2023-04-12T12:02:23;9.20;97.30
1650;DHT22;822;53.670;8.676;2023-04-12T12:04:51;9.20;97.30
1650;DHT22;822;53.670;8.676;2023-04-12T12:07:22;9.20;97.20
1650;DHT22;822;53.670;8.676;2023-04-12T12:09:50;9.30;97.30
1650;DHT22;822;53.670;8.676;2023-04-12T12:12:17;9.30;97.30
1650;DHT22;822;53.670;8.676;2023-04-12T12:14:44;9.30;97.30
1650;DHT22;822;53.670;8.676;2023-04-12T12:17:13;9.30;97.30
1650;DHT22;822;53.670;8.676;2023-04-12T12:19:41;9.40;97.40
1650;DHT22;822;53.670;8.676;2023-04-12T12:22:13;9.40;97.40
1650;DHT22;822;53.670;8.676;2023-04-12T12:24:46;9.40;97.50
1650;DHT22;822;53.670;8.676;2023-04-12T12:27:19;9.50;97.50
1650;DHT22;822;53.670;8.676;2023-04-12T12:29:49;9.50;97.50
1650;DHT22;822;53.670;8.676;2023-04-12T12:32:18;9.50;97.50
1650;DHT22;822;53.670;8.676;2023-04-12T12:34:50;9.60;97.60
1650;DHT22;822;53.670;8.676;2023-04-12T12:37:20;9.60;97.40
1650;DHT22;822;53.670;8.676;2023-04-12T12:40:07;9.60;97.30
1650;DHT22;822;53.670;8.676;2023-04-12T12:42:45;9.60;97.20
1650;DHT22;822;53.670;8.676;2023-04-12T12:45:13;9.50;97.10
1650;DHT22;822;53.670;8.676;2023-04-12T12:47:49;9.50;97.10
1650;DHT22;822;53.670;8.676;2023-04-12T12:50:16;9.50;97.00
1650;DHT22;822;53.670;8.676;2023-04-12T12:52:44;9.40;97.00
1650;DHT22;822;53.670;8.676;2023-04-12T12:55:17;9.40;97.30
1650;DHT22;822;53.670;8.676;2023-04-12T12:57:46;9.40;97.30
1650;DHT22;822;53.670;8.676;2023-04-12T13:00:15;9.30;97.30
1650;DHT22;822;53.670;8.676;2023-04-12T13:02:42;9.30;97.40
1650;DHT22;822;53.670;8.676;2023-04-12T13:05:10;9.30;97.60
1650;DHT22;822;53.670;8.676;2023-04-12T13:07:37;9.40;97.80
1650;DHT22;822;53.670;8.676;2023-04-12T13:10:05;9.40;97.80
1650;DHT22;822;53.670;8.676;2023-04-12T13:12:35;9.40;97.80
1650;DHT22;822;53.670;8.676;2023-04-12T13:15:04;9.40;97.90
1650;DHT22;822;53.670;8.676;2023-04-12T13:17:31;9.50;97.90
1650;DHT22;822;53.670;8.676;2023-04-12T13:19:58;9.50;97.90
1650;DHT22;822;53.670;8.676;2023-04-12T13:22:25;9.40;97.80
1650;DHT22;822;53.670;8.676;2023-04-12T13:24:53;9.40;97.80
1650;DHT22;822;53.670;8.676;2023-04-12T13:27:21;9.40;97.80
1650;DHT22;822;53.670;8.676;2023-04-12T13:29:49;9.50;97.90
1650;DHT22;822;53.670;8.676;2023-04-12T13:32:16;9.50;98.00
1650;DHT22;822;53.670;8.676;2023-04-12T13:34:43;9.50;98.00
1650;DHT22;822;53.670;8.676;2023-04-12T13:37:10;9.60;98.10
1650;DHT22;822;53.670;8.676;2023-04-12T13:39:38;9.60;98.00
1650;DHT22;822;53.670;8.676;2023-04-12T13:42:05;9.60;98.00
1650;DHT22;822;53.670;8.676;2023-04-12T13:44:33;9.60;98.00
1650;DHT22;822;53.670;8.676;2023-04-12T13:47:01;9.60;97.90
1650;DHT22;822;53.670;8.676;2023-04-12T13:49:29;9.60;98.00
1650;DHT22;822;53.670;8.676;2023-04-12T13:51:56;9.60;98.00
1650;DHT22;822;53.670;8.676;2023-04-12T13:54:26;9.60;98.00
1650;DHT22;822;53.670;8.676;2023-04-12T13:56:53;9.60;97.90
1650;DHT22;822;53.670;8.676;2023-04-12T13:59:22;9.60;98.00
1650;DHT22;822;53.670;8.676;2023-04-12T14:01:49;9.60;98.10
1650;DHT22;822;53.670;8.676;2023-04-12T14:04:17;9.70;98.20
1650;DHT22;822;53.670;8.676;2023-04-12T14:06:44;9.70;98.20
1650;DHT22;822;53.670;8.676;2023-04-12T14:09:22;9.80;98.30
1650;DHT22;822;53.670;8.676;2023-04-12T14:11:50;9.90;98.30
1650;DHT22;822;53.670;8.676;2023-04-12T14:14:17;9.90;98.30
1650;DHT22;822;53.670;8.676;2023-04-12T14:16:45;10.00;98.20
1650;DHT22;822;53.670;8.676;2023-04-12T14:19:12;9.90;98.20
1650;DHT22;822;53.670;8.676;2023-04-12T14:21:42;9.90;98.20
1650;DHT22;822;53.670;8.676;2023-04-12T14:24:09;10.00;98.30
1650;DHT22;822;53.670;8.676;2023-04-12T14:26:36;10.00;98.30
1650;DHT22;822;53.670;8.676;2023-04-12T14:29:04;10.10;98.30
1650;DHT22;822;53.670;8.676;2023-04-12T14:31:34;10.20;98.40
1650;DHT22;822;53.670;8.676;2023-04-12T14:34:02;10.20;98.40
1650;DHT22;822;53.670;8.676;2023-04-12T14:36:29;10.20;98.40
1650;DHT22;822;53.670;8.676;2023-04-12T14:38:57;10.30;98.40
1650;DHT22;822;53.670;8.676;2023-04-12T14:41:26;10.40;98.40
1650;DHT22;822;53.670;8.676;2023-04-12T14:43:53;10.40;98.30
1650;DHT22;822;53.670;8.676;2023-04-12T14:46:20;10.40;98.20
1650;DHT22;822;53.670;8.676;2023-04-12T14:48:48;10.40;98.20
1650;DHT22;822;53.670;8.676;2023-04-12T14:51:18;10.40;98.20
1650;DHT22;822;53.670;8.676;2023-04-12T14:53:45;10.40;98.20
1650;DHT22;822;53.670;8.676;2023-04-12T14:56:18;10.50;98.20
1650;DHT22;822;53.670;8.676;2023-04-12T14:58:45;10.50;98.20
1650;DHT22;822;53.670;8.676;2023-04-12T15:01:21;10.50;97.90
1650;DHT22;822;53.670;8.676;2023-04-12T15:03:59;10.50;98.00
1650;DHT22;822;53.670;8.676;2023-04-12T15:06:29;10.40;97.70
1650;DHT22;822;53.670;8.676;2023-04-12T15:09:00;10.40;97.60
1650;DHT22;822;53.670;8.676;2023-04-12T15:11:31;10.40;97.80
1650;DHT22;822;53.670;8.676;2023-04-12T15:14:05;10.40;97.80
1650;DHT22;822;53.670;8.676;2023-04-12T15:16:34;10.40;97.60
1650;DHT22;822;53.670;8.676;2023-04-12T15:19:02;10.30;97.70
1650;DHT22;822;53.670;8.676;2023-04-12T15:21:29;10.40;97.70
1650;DHT22;822;53.670;8.676;2023-04-12T15:23:57;10.30;97.40
1650;DHT22;822;53.670;8.676;2023-04-12T15:26:24;10.30;97.40
1650;DHT22;822;53.670;8.676;2023-04-12T15:28:53;10.20;97.50
1650;DHT22;822;53.670;8.676;2023-04-12T15:31:20;10.20;97.50
1650;DHT22;822;53.670;8.676;2023-04-12T15:33:47;10.30;97.50
1650;DHT22;822;53.670;8.676;2023-04-12T15:36:15;10.20;97.50
1650;DHT22;822;53.670;8.676;2023-04-12T15:38:43;10.20;97.50
1650;DHT22;822;53.670;8.676;2023-04-12T15:41:10;10.30;97.60
1650;DHT22;822;53.670;8.676;2023-04-12T15:43:37;10.20;97.60
1650;DHT22;822;53.670;8.676;2023-04-12T15:46:08;10.30;97.70
1650;DHT22;822;53.670;8.676;2023-04-12T15:48:35;10.30;97.70
1650;DHT22;822;53.670;8.676;2023-04-12T15:51:03;10.30;97.80
1650;DHT22;822;53.670;8.676;2023-04-12T15:53:31;10.30;97.80
1650;DHT22;822;53.670;8.676;2023-04-12T15:55:58;10.30;97.70
1650;DHT22;822;53.670;8.676;2023-04-12T15:58:25;10.30;97.70
1650;DHT22;822;53.670;8.676;2023-04-12T16:00:52;10.30;97.80
1650;DHT22;822;53.670;8.676;2023-04-12T16:03:21;10.20;97.50
1650;DHT22;822;53.670;8.676;2023-04-12T16:05:49;10.20;97.60
1650;DHT22;822;53.670;8.676;2023-04-12T16:08:18;10.20;97.70
1650;DHT22;822;53.670;8.676;2023-04-12T16:10:45;10.10;97.70
1650;DHT22;822;53.670;8.676;2023-04-12T16:13:13;10.10;97.70
1650;DHT22;822;53.670;8.676;2023-04-12T16:15:40;10.10;97.70
1650;DHT22;822;53.670;8.676;2023-04-12T16:18:07;10.10;97.70
1650;DHT22;822;53.670;8.676;2023-04-12T16:20:36;10.10;97.80
1650;DHT22;822;53.670;8.676;2023-04-12T16:23:04;10.10;97.80
1650;DHT22;822;53.670;8.676;2023-04-12T16:25:31;10.10;97.70
1650;DHT22;822;53.670;8.676;2023-04-12T16:27:59;10.10;97.80
1650;DHT22;822;53.670;8.676;2023-04-12T16:30:27;10.10;97.80
1650;DHT22;822;53.670;8.676;2023-04-12T16:32:54;10.10;97.80
1650;DHT22;822;53.670;8.676;2023-04-12T16:35:22;10.10;97.80
1650;DHT22;822;53.670;8.676;2023-04-12T16:37:51;10.10;97.80
1650;DHT22;822;53.670;8.676;2023-04-12T16:40:18;10.10;97.80
1650;DHT22;822;53.670;8.676;2023-04-12T16:42:45;10.10;97.80